Time;durP1;ratioP1;P1;durP2;ratioP2;P2;SDS_P1;SDS_P2;PMS_P1;PMS_P2;Temp;Humidity;BMP_temperature;BMP_pressure;BME280_temperature;BME280_humidity;BME280_pressure;Samples;Min_cycle;Max_cycle;Signal;HPM_P1;HPM_P2
2020/12/04 00:01:21;;;;;;;33.57;22.33;;;;;;;1.39;86.29;98570.05;1781597;80;25120;-70
2020/12/04 00:03:48;;;;;;;33.70;21.30;;;;;;;1.41;86.17;98579.03;1768563;80;25295;-71
2020/12/04 00:06:15;;;;;;;31.20;20.50;;;;;;;1.40;86.15;98586.42;1753058;81;25699;-71
2020/12/04 00:08:41;;;;;;;32.70;22.27;;;;;;;1.40;86.20;98595.02;1753111;81;25223;-70
2020/12/04 00:11:08;;;;;;;37.60;23.57;;;;;;;1.40;86.25;98597.61;1711972;83;25321;-70
2020/12/04 00:13:35;;;;;;;39.23;23.97;;;;;;;1.40;86.25;98589.02;1753118;81;25346;-70
2020/12/04 00:16:02;;;;;;;31.43;20.53;;;;;;;1.40;86.33;98597.61;1752994;81;25184;-70
2020/12/04 00:18:28;;;;;;;31.53;21.80;;;;;;;1.41;86.51;98591.52;1753121;81;25087;-70
2020/12/04 00:20:55;;;;;;;35.07;23.50;;;;;;;1.41;86.45;98591.52;1753059;81;25362;-70
2020/12/04 00:23:22;;;;;;;32.97;20.37;;;;;;;1.50;86.50;98586.73;1729563;81;25145;-69
2020/12/04 00:25:49;;;;;;;35.67;23.53;;;;;;;1.51;86.48;98584.06;1753064;81;25086;-69
2020/12/04 00:28:15;;;;;;;28.70;19.50;;;;;;;1.53;86.42;98571.84;1711963;83;25144;-69
2020/12/04 00:30:42;;;;;;;33.80;20.87;;;;;;;1.54;86.50;98570.08;1753055;81;25137;-70
2020/12/04 00:33:09;;;;;;;34.17;20.53;;;;;;;1.53;86.40;98564.54;1753004;81;25129;-70
2020/12/04 00:35:35;;;;;;;34.20;21.67;;;;;;;1.50;86.48;98562.95;1752943;81;25192;-70
2020/12/04 00:38:02;;;;;;;31.23;21.23;;;;;;;1.50;86.57;98564.71;1753014;81;25640;-70
2020/12/04 00:40:30;;;;;;;32.10;21.13;;;;;;;1.50;86.60;98550.45;1753014;81;25196;-70
2020/12/04 00:42:57;;;;;;;36.13;22.57;;;;;;;1.48;86.61;98547.48;1753077;81;25378;-70
2020/12/04 00:45:24;;;;;;;39.77;25.93;;;;;;;1.47;86.67;98553.61;1752855;81;25193;-70
2020/12/04 00:47:51;;;;;;;39.27;24.73;;;;;;;1.49;86.74;98554.78;1753018;81;25191;-70
2020/12/04 00:50:19;;;;;;;33.70;22.77;;;;;;;1.51;86.75;98559.87;1752907;81;25528;-69
2020/12/04 00:52:46;;;;;;;35.50;22.37;;;;;;;1.51;86.93;98547.78;1752880;81;25141;-69
2020/12/04 00:55:15;;;;;;;36.97;23.53;;;;;;;1.53;86.86;98549.81;1753009;81;25165;-69
2020/12/04 00:57:42;;;;;;;37.33;24.40;;;;;;;1.52;86.85;98542.95;1753016;81;25200;-69
2020/12/04 01:00:09;;;;;;;34.00;22.87;;;;;;;1.53;86.86;98548.99;1752885;81;25093;-69
2020/12/04 01:02:36;;;;;;;34.33;22.50;;;;;;;1.56;86.95;98550.08;1712077;83;25217;-69
2020/12/04 01:05:04;;;;;;;30.03;20.00;;;;;;;1.59;86.97;98551.20;1752972;81;25745;-69
2020/12/04 01:07:31;;;;;;;30.13;19.33;;;;;;;1.59;87.09;98549.91;1753064;81;25071;-71
2020/12/04 01:09:58;;;;;;;35.77;21.57;;;;;;;1.59;86.92;98548.61;1753003;81;25089;-70
2020/12/04 01:12:24;;;;;;;30.83;20.40;;;;;;;1.58;86.91;98547.79;1752872;81;25683;-69
2020/12/04 01:14:51;;;;;;;33.30;20.87;;;;;;;1.57;87.16;98546.58;1753020;81;25738;-70
2020/12/04 01:17:18;;;;;;;31.67;20.80;;;;;;;1.60;87.04;98546.41;1752947;81;25161;-70
2020/12/04 01:19:45;;;;;;;30.70;21.00;;;;;;;1.62;87.08;98545.37;1752975;81;25291;-70
2020/12/04 01:22:13;;;;;;;31.90;21.43;;;;;;;1.62;87.16;98540.20;1752971;81;25291;-70
2020/12/04 01:24:40;;;;;;;34.13;22.17;;;;;;;1.64;87.05;98540.11;1752899;81;25552;-69
2020/12/04 01:27:08;;;;;;;31.63;22.00;;;;;;;1.64;87.12;98537.08;1753006;81;25101;-70
2020/12/04 01:29:34;;;;;;;29.17;19.67;;;;;;;1.68;87.13;98537.73;1752956;81;25603;-69
2020/12/04 01:32:01;;;;;;;32.20;22.17;;;;;;;1.70;87.15;98528.09;1753114;81;25085;-69
2020/12/04 01:34:28;;;;;;;34.27;23.17;;;;;;;1.72;87.11;98528.83;1753044;81;25244;-68
2020/12/04 01:36:55;;;;;;;28.97;19.80;;;;;;;1.73;87.13;98524.03;1752930;81;25192;-70
2020/12/04 01:39:22;;;;;;;30.73;20.20;;;;;;;1.78;87.15;98515.98;1752868;81;25236;-70
2020/12/04 01:41:49;;;;;;;27.53;18.47;;;;;;;1.78;87.09;98512.92;1753003;81;25125;-70
2020/12/04 01:44:16;;;;;;;33.43;20.57;;;;;;;1.76;87.19;98503.11;1752936;81;25797;-70
2020/12/04 01:46:43;;;;;;;27.77;18.23;;;;;;;1.78;87.19;98493.48;1752598;81;25220;-70
2020/12/04 01:49:09;;;;;;;30.07;20.13;;;;;;;1.80;87.17;98493.39;1752348;81;25316;-70
2020/12/04 01:51:36;;;;;;;29.40;19.07;;;;;;;1.80;87.23;98483.02;1752470;81;25227;-70
2020/12/04 01:54:03;;;;;;;30.37;20.57;;;;;;;1.80;87.29;98476.06;1727075;81;25165;-70
2020/12/04 01:56:37;;;;;;;27.70;19.30;;;;;;;1.79;87.23;98464.05;1752390;81;25425;-70
2020/12/04 01:59:00;;;;;;;32.10;19.93;;;;;;;1.78;87.33;98446.81;1752444;81;25283;-68
2020/12/04 02:01:27;;;;;;;28.63;18.80;;;;;;;1.76;87.40;98446.52;1752457;81;25338;-70
2020/12/04 02:03:55;;;;;;;30.57;20.43;;;;;;;1.73;87.40;98441.08;1752621;81;25236;-71
2020/12/04 02:06:42;;;;;;;30.17;19.23;;;;;;;1.70;87.67;98444.31;1691158;84;25210;-71
2020/12/04 02:09:23;;;;;;;33.97;19.50;;;;;;;1.75;87.71;98440.52;1849788;76;26899;-70
2020/12/04 02:11:50;;;;;;;29.80;20.33;;;;;;;1.68;87.81;98435.34;1819913;78;25258;-69
2020/12/04 02:14:17;;;;;;;30.83;21.20;;;;;;;1.63;87.81;98434.31;1819889;77;25223;-70
2020/12/04 02:16:45;;;;;;;32.60;21.73;;;;;;;1.63;87.66;98434.78;1819717;77;25626;-70
2020/12/04 02:19:12;;;;;;;31.47;20.03;;;;;;;1.61;87.80;98432.72;1819847;78;25274;-70
2020/12/04 02:21:40;;;;;;;34.80;23.37;;;;;;;1.58;87.71;98436.81;1819783;77;25215;-70
2020/12/04 02:24:07;;;;;;;28.93;17.97;;;;;;;1.56;87.72;98434.31;1788344;78;25227;-70
2020/12/04 02:26:34;;;;;;;31.47;21.40;;;;;;;1.55;87.94;98433.11;1819777;77;25738;-70
2020/12/04 02:29:03;;;;;;;41.00;24.33;;;;;;;1.52;88.08;98428.92;1819710;78;25303;-70
2020/12/04 02:31:31;;;;;;;33.93;22.80;;;;;;;1.51;88.08;98427.72;1819678;77;25302;-71
2020/12/04 02:33:57;;;;;;;36.73;24.10;;;;;;;1.47;88.28;98426.63;1819782;77;25279;-70
2020/12/04 02:36:24;;;;;;;39.60;25.27;;;;;;;1.44;88.26;98413.00;1788261;78;25322;-70
2020/12/04 02:38:51;;;;;;;34.30;23.50;;;;;;;1.43;88.32;98400.52;1819757;77;25287;-70
2020/12/04 02:41:18;;;;;;;38.80;25.37;;;;;;;1.43;88.43;98394.52;1819583;78;25073;-70
2020/12/04 02:43:44;;;;;;;32.63;22.30;;;;;;;1.42;88.33;98393.66;1819803;78;25038;-70
2020/12/04 02:46:11;;;;;;;35.13;23.57;;;;;;;1.40;88.35;98398.58;1819744;77;25187;-70
2020/12/04 02:48:38;;;;;;;36.57;23.87;;;;;;;1.40;88.39;98401.17;1819802;78;25248;-70
2020/12/04 02:51:07;;;;;;;34.20;22.23;;;;;;;1.39;88.35;98400.34;1801576;78;25142;-71
2020/12/04 02:53:34;;;;;;;34.57;22.30;;;;;;;1.39;88.40;98394.30;1787328;79;25210;-70
2020/12/04 02:56:01;;;;;;;33.47;21.30;;;;;;;1.40;88.47;98390.80;1787427;79;25289;-70
2020/12/04 02:58:29;;;;;;;35.13;22.50;;;;;;;1.42;88.57;98391.06;1787486;79;25852;-70
2020/12/04 03:00:56;;;;;;;34.43;22.70;;;;;;;1.45;88.64;98393.95;1787403;80;25356;-70
2020/12/04 03:03:23;;;;;;;34.77;23.00;;;;;;;1.42;88.49;98385.88;1787602;80;25262;-70
2020/12/04 03:05:50;;;;;;;31.23;21.10;;;;;;;1.43;88.54;98391.92;1787314;80;25332;-71
2020/12/04 03:08:16;;;;;;;32.23;21.13;;;;;;;1.43;88.75;98384.14;1791397;79;25190;-70
2020/12/04 03:10:43;;;;;;;31.93;21.77;;;;;;;1.45;88.66;98383.59;1796421;79;25216;-71
2020/12/04 03:13:10;;;;;;;32.00;20.70;;;;;;;1.46;88.69;98382.67;1796387;78;25296;-71
2020/12/04 03:15:36;;;;;;;28.80;19.10;;;;;;;1.49;88.66;98382.46;1796335;79;25281;-71
2020/12/04 03:18:03;;;;;;;28.97;18.90;;;;;;;1.54;88.67;98377.01;1796404;78;25217;-71
2020/12/04 03:20:30;;;;;;;32.13;21.50;;;;;;;1.53;88.72;98369.70;1795961;79;25123;-71
2020/12/04 03:22:57;;;;;;;30.60;19.83;;;;;;;1.55;88.53;98372.20;1795812;78;25743;-71
2020/12/04 03:25:23;;;;;;;31.07;20.47;;;;;;;1.56;88.63;98367.38;1795764;78;25676;-70
2020/12/04 03:27:50;;;;;;;33.23;21.17;;;;;;;1.58;88.49;98373.32;1795802;78;25285;-71
2020/12/04 03:30:16;;;;;;;34.00;21.03;;;;;;;1.57;88.52;98369.87;1795793;78;25206;-71
2020/12/04 03:32:44;;;;;;;31.23;21.13;;;;;;;1.57;88.41;98367.76;1795861;78;25253;-70
2020/12/04 03:35:11;;;;;;;27.70;19.37;;;;;;;1.56;88.45;98365.64;1795824;79;25658;-70
2020/12/04 03:37:39;;;;;;;28.57;20.40;;;;;;;1.56;88.44;98374.70;1795756;78;25703;-71
2020/12/04 03:40:06;;;;;;;28.23;19.90;;;;;;;1.53;88.54;98371.48;1795790;78;25668;-71
2020/12/04 03:42:32;;;;;;;28.77;18.50;;;;;;;1.51;88.59;98357.31;1795826;78;25293;-71
2020/12/04 03:44:59;;;;;;;28.80;19.23;;;;;;;1.52;88.58;98355.55;1795885;78;25332;-71
2020/12/04 03:47:26;;;;;;;32.53;21.20;;;;;;;1.54;88.78;98354.51;1795746;78;25141;-71
2020/12/04 03:49:52;;;;;;;26.70;18.17;;;;;;;1.55;88.66;98343.70;1795828;78;25332;-70
2020/12/04 03:52:20;;;;;;;29.20;19.53;;;;;;;1.56;89.13;98337.58;1795635;78;25833;-71
2020/12/04 03:54:48;;;;;;;29.43;18.77;;;;;;;1.63;88.85;98331.93;1769347;79;25665;-72
2020/12/04 03:57:15;;;;;;;29.70;20.77;;;;;;;1.66;88.82;98337.41;1795838;78;25202;-71
2020/12/04 03:59:41;;;;;;;29.50;19.50;;;;;;;1.71;88.74;98340.54;1795763;78;25292;-71
2020/12/04 04:02:08;;;;;;;30.67;21.03;;;;;;;1.76;88.64;98338.94;1769114;79;25213;-71
2020/12/04 04:04:35;;;;;;;32.33;21.67;;;;;;;1.80;88.55;98343.02;1795762;79;25685;-71
2020/12/04 04:07:02;;;;;;;38.30;25.23;;;;;;;1.80;88.40;98338.66;1795749;78;25329;-72
2020/12/04 04:09:29;;;;;;;38.30;25.13;;;;;;;1.83;88.20;98346.25;1788458;79;25349;-71
2020/12/04 04:11:56;;;;;;;38.43;26.00;;;;;;;1.84;88.11;98341.45;1786962;79;25201;-71
2020/12/04 04:14:23;;;;;;;36.97;24.77;;;;;;;1.84;87.88;98328.48;1786824;80;25664;-71
2020/12/04 04:16:50;;;;;;;41.43;25.97;;;;;;;1.84;87.75;98327.62;1786967;79;25312;-72
2020/12/04 04:19:16;;;;;;;33.37;22.47;;;;;;;1.83;87.77;98329.40;1786707;79;25681;-72
2020/12/04 04:21:43;;;;;;;41.27;28.27;;;;;;;1.83;87.58;98324.21;1786762;79;25691;-71
2020/12/04 04:24:10;;;;;;;37.10;25.73;;;;;;;1.81;87.58;98322.63;1756409;80;25754;-73
2020/12/04 04:26:37;;;;;;;38.23;24.43;;;;;;;1.78;87.35;98329.33;1756524;80;25372;-71
2020/12/04 04:29:04;;;;;;;39.20;27.40;;;;;;;1.78;87.14;98315.89;1786885;79;25278;-70
2020/12/04 04:31:31;;;;;;;34.17;21.50;;;;;;;1.79;87.37;98302.45;1786693;79;25336;-71
2020/12/04 04:33:57;;;;;;;40.30;26.63;;;;;;;1.78;87.28;98300.34;1786792;80;25618;-71
2020/12/04 04:36:24;;;;;;;42.00;28.93;;;;;;;1.74;87.06;98300.14;1756403;80;25313;-70
2020/12/04 04:38:51;;;;;;;48.13;30.67;;;;;;;1.75;87.17;98297.11;1786925;80;25257;-71
2020/12/04 04:41:18;;;;;;;42.20;28.10;;;;;;;1.75;87.16;98297.11;1786823;79;25325;-70
2020/12/04 04:43:45;;;;;;;44.57;29.33;;;;;;;1.78;87.14;98300.34;1786867;79;25214;-70
2020/12/04 04:46:35;;;;;;;44.93;29.53;;;;;;;1.77;87.06;98299.95;1786862;79;25218;-71
2020/12/04 04:49:06;;;;;;;44.60;30.13;;;;;;;1.79;87.08;98304.61;1786879;79;25743;-71
2020/12/04 04:51:34;;;;;;;33.83;23.10;;;;;;;1.83;87.09;98287.91;1786848;78;25170;-70
2020/12/04 04:54:00;;;;;;;38.23;26.10;;;;;;;1.88;87.08;98291.97;1786863;80;25296;-70
2020/12/04 04:56:27;;;;;;;37.43;25.10;;;;;;;1.91;87.11;98298.26;1786802;80;25258;-70
2020/12/04 04:58:54;;;;;;;37.83;23.50;;;;;;;1.95;87.09;98288.08;1786789;79;25067;-71
2020/12/04 05:01:21;;;;;;;37.80;23.70;;;;;;;2.00;87.07;98285.55;1786898;80;25143;-71
2020/12/04 05:03:58;;;;;;;34.70;22.57;;;;;;;2.06;87.00;98282.19;1786818;79;25597;-71
2020/12/04 05:06:35;;;;;;;38.03;23.90;;;;;;;2.12;86.81;98280.03;1786849;79;25747;-71
2020/12/04 05:09:06;;;;;;;35.63;23.20;;;;;;;2.17;86.79;98270.19;1791015;79;25696;-71
2020/12/04 05:11:35;;;;;;;42.67;27.10;;;;;;;2.19;86.61;98274.80;1795736;78;25375;-71
2020/12/04 05:14:17;;;;;;;38.90;25.33;;;;;;;2.21;86.64;98279.90;1794844;78;25299;-71
2020/12/04 05:16:46;;;;;;;36.13;24.10;;;;;;;2.22;86.53;98266.83;1795575;78;25201;-71
2020/12/04 05:19:13;;;;;;;39.23;24.83;;;;;;;2.24;86.49;98269.33;1795686;78;25627;-71
2020/12/04 05:21:39;;;;;;;40.50;24.80;;;;;;;2.26;86.44;98268.75;1795800;78;25284;-72
2020/12/04 05:24:06;;;;;;;38.47;25.83;;;;;;;2.28;86.37;98271.25;1795780;79;25267;-71
2020/12/04 05:26:36;;;;;;;43.20;27.67;;;;;;;2.27;86.18;98270.42;1795722;78;25272;-71
2020/12/04 05:29:04;;;;;;;44.27;27.90;;;;;;;2.27;86.19;98254.04;1795743;78;25281;-71
2020/12/04 05:31:35;;;;;;;44.63;28.50;;;;;;;2.27;86.07;98250.97;1795672;79;25739;-71
2020/12/04 05:34:18;;;;;;;42.10;27.50;;;;;;;2.26;85.99;98245.88;1795687;78;25711;-71
2020/12/04 05:36:45;;;;;;;45.80;28.30;;;;;;;2.23;85.89;98225.70;1795774;78;25285;-70
2020/12/04 05:39:12;;;;;;;49.67;30.93;;;;;;;2.23;85.85;98219.22;1769078;79;25265;-70
2020/12/04 05:41:49;;;;;;;45.97;31.80;;;;;;;2.25;85.90;98220.89;1768940;79;25850;-70
2020/12/04 05:44:17;;;;;;;47.93;30.47;;;;;;;2.26;85.90;98220.76;1795800;79;25612;-72
2020/12/04 05:46:53;;;;;;;50.53;32.30;;;;;;;2.28;85.81;98220.22;1795169;79;25131;-70
2020/12/04 05:49:20;;;;;;;48.43;31.60;;;;;;;2.31;85.75;98213.97;1795697;79;25300;-69
2020/12/04 05:51:48;;;;;;;50.80;30.30;;;;;;;2.29;85.80;98214.08;1795674;78;25366;-71
2020/12/04 05:54:15;;;;;;;44.63;29.27;;;;;;;2.30;85.89;98221.41;1769073;78;25271;-71
2020/12/04 05:56:42;;;;;;;44.90;29.30;;;;;;;2.34;85.79;98214.59;1795687;79;25328;-70
2020/12/04 05:59:13;;;;;;;46.70;29.37;;;;;;;2.37;85.86;98216.17;1769038;79;25261;-70
2020/12/04 06:01:46;;;;;;;42.40;27.90;;;;;;;2.40;85.92;98226.35;1795544;78;25214;-69
2020/12/04 06:04:16;;;;;;;42.10;28.03;;;;;;;2.48;85.82;98214.14;1795700;78;25316;-71
2020/12/04 06:06:45;;;;;;;38.83;24.67;;;;;;;2.53;85.88;98220.70;1795812;78;25332;-71
2020/12/04 06:09:12;;;;;;;42.93;26.43;;;;;;;2.56;86.00;98210.13;1795709;78;25253;-70
2020/12/04 06:11:41;;;;;;;40.97;26.80;;;;;;;2.61;85.94;98213.69;1795620;78;25719;-70
2020/12/04 06:14:19;;;;;;;43.40;28.00;;;;;;;2.65;85.87;98215.60;1795586;78;25745;-70
2020/12/04 06:17:07;;;;;;;39.73;25.17;;;;;;;2.68;85.92;98224.04;1795765;79;25337;-71
2020/12/04 06:19:40;;;;;;;38.97;25.30;;;;;;;2.75;85.86;98228.34;1768769;79;25142;-70
2020/12/04 06:22:18;;;;;;;39.27;26.30;;;;;;;2.80;85.83;98237.95;1795521;79;25229;-69
2020/12/04 06:25:00;;;;;;;37.40;24.50;;;;;;;2.84;85.72;98245.88;1795598;78;25645;-70
2020/12/04 06:27:44;;;;;;;42.00;27.77;;;;;;;2.89;85.62;98246.88;1795600;78;25122;-70
2020/12/04 06:30:15;;;;;;;38.83;25.63;;;;;;;2.91;85.59;98258.80;1795776;78;25293;-69
2020/12/04 06:32:48;;;;;;;44.37;26.70;;;;;;;2.92;85.36;98257.88;1795640;78;25197;-70
2020/12/04 06:35:18;;;;;;;34.33;22.37;;;;;;;2.95;85.32;98264.17;1795694;78;25625;-70
2020/12/04 06:37:45;;;;;;;40.80;27.67;;;;;;;2.95;85.36;98258.98;1792734;78;25629;-70
2020/12/04 06:40:26;;;;;;;44.63;26.73;;;;;;;2.97;85.23;98260.17;1795676;78;25312;-70
2020/12/04 06:42:54;;;;;;;40.67;25.80;;;;;;;2.97;85.21;98262.30;1795752;79;25059;-70
2020/12/04 06:45:21;;;;;;;41.07;26.90;;;;;;;2.98;85.24;98261.81;1795775;79;25110;-70
2020/12/04 06:48:13;;;;;;;39.30;25.60;;;;;;;3.02;85.17;98265.03;1795596;78;25064;-70
2020/12/04 06:50:46;;;;;;;54.90;27.30;;;;;;;3.05;85.28;98264.38;1795645;78;25347;-70
2020/12/04 06:53:15;;;;;;;37.23;24.87;;;;;;;3.06;85.32;98272.52;1795748;78;25201;-70
2020/12/04 06:55:42;;;;;;;34.93;23.17;;;;;;;3.10;85.29;98284.83;1795766;79;25624;-70
2020/12/04 06:58:09;;;;;;;37.07;23.20;;;;;;;3.19;85.18;98276.89;1795767;78;25060;-70
2020/12/04 07:00:36;;;;;;;34.53;22.30;;;;;;;3.26;85.31;98275.52;1795975;79;25202;-70
2020/12/04 07:03:04;;;;;;;37.40;25.57;;;;;;;3.34;85.29;98276.64;1795849;78;25372;-72
2020/12/04 07:08:09;;;;;;;31.27;20.90;;;;;;;3.58;85.09;98265.47;1853002;76;26848;-70
2020/12/04 07:10:36;;;;;;;33.47;20.77;;;;;;;3.61;85.03;98269.16;1822357;78;25258;-69
2020/12/04 07:13:05;;;;;;;32.70;21.60;;;;;;;3.69;84.92;98273.82;1822324;77;25687;-70
2020/12/04 07:15:32;;;;;;;30.37;20.60;;;;;;;3.75;84.96;98265.56;1822301;78;25283;-71
2020/12/04 07:17:59;;;;;;;24.93;17.67;;;;;;;3.79;84.88;98264.42;1822373;77;25264;-70
2020/12/04 07:20:37;;;;;;;25.60;18.63;;;;;;;3.83;84.85;98255.45;1822425;77;25200;-70
2020/12/04 07:23:08;;;;;;;29.07;18.83;;;;;;;3.88;84.65;98268.13;1822479;78;25247;-69
2020/12/04 07:25:35;;;;;;;28.63;18.03;;;;;;;3.92;84.71;98259.14;1822494;77;25365;-70
2020/12/04 07:28:03;;;;;;;28.13;18.87;;;;;;;3.92;84.73;98256.55;1822202;78;25678;-70
2020/12/04 07:30:30;;;;;;;25.90;18.37;;;;;;;3.92;84.73;98259.14;1792893;78;25626;-70
2020/12/04 07:32:57;;;;;;;26.87;18.80;;;;;;;3.96;84.70;98254.58;1822469;77;25109;-70
2020/12/04 07:35:24;;;;;;;27.20;18.50;;;;;;;3.96;84.78;98251.50;1822426;77;25266;-70
2020/12/04 07:37:51;;;;;;;26.70;19.40;;;;;;;4.00;84.70;98257.30;1792692;78;25168;-71
2020/12/04 07:40:18;;;;;;;27.53;19.33;;;;;;;4.06;84.69;98254.27;1792538;78;25337;-72
2020/12/04 07:42:45;;;;;;;27.30;18.90;;;;;;;4.10;84.70;98250.48;1822250;77;25376;-71
2020/12/04 07:45:16;;;;;;;26.33;18.40;;;;;;;4.18;84.73;98250.76;1822380;77;25254;-72
2020/12/04 07:47:43;;;;;;;25.53;18.60;;;;;;;4.24;84.73;98252.07;1822284;78;25684;-71
2020/12/04 07:50:14;;;;;;;22.50;17.03;;;;;;;4.31;84.62;98237.69;1816222;77;25305;-70
2020/12/04 07:52:50;;;;;;;21.90;16.73;;;;;;;4.39;84.59;98228.83;1789906;79;25723;-70
2020/12/04 07:55:21;;;;;;;21.53;15.23;;;;;;;4.50;84.53;98237.61;1789844;78;25284;-70
2020/12/04 07:58:11;;;;;;;22.33;15.80;;;;;;;4.60;84.17;98232.06;1789939;79;25123;-70
2020/12/04 08:00:38;;;;;;;20.07;15.00;;;;;;;4.69;84.29;98244.38;1790018;79;25258;-69
2020/12/04 08:03:14;;;;;;;19.07;14.07;;;;;;;4.78;84.23;98244.18;1789921;80;25331;-72
2020/12/04 08:05:41;;;;;;;21.00;15.80;;;;;;;4.91;83.69;98244.91;1789906;79;25763;-69
2020/12/04 08:08:08;;;;;;;22.03;15.37;;;;;;;5.02;83.62;98244.89;1760687;80;25281;-70
2020/12/04 08:10:35;;;;;;;20.23;14.43;;;;;;;5.08;83.58;98246.22;1785271;79;25709;-71
2020/12/04 08:13:03;;;;;;;19.73;14.70;;;;;;;5.14;83.38;98240.51;1785262;79;25684;-71
2020/12/04 08:15:31;;;;;;;21.53;15.50;;;;;;;5.22;83.14;98258.17;1785314;80;25285;-70
2020/12/04 08:18:05;;;;;;;19.10;13.87;;;;;;;5.34;82.63;98254.60;1785048;79;25273;-71
2020/12/04 08:20:32;;;;;;;21.77;15.83;;;;;;;5.34;82.90;98254.60;1784492;80;25726;-70
2020/12/04 08:22:59;;;;;;;22.80;17.27;;;;;;;5.36;82.96;98254.48;1784646;80;25253;-71
2020/12/04 08:25:29;;;;;;;24.73;17.80;;;;;;;5.38;82.45;98263.04;1784716;79;25202;-70
2020/12/04 08:27:58;;;;;;;24.13;17.63;;;;;;;5.38;81.93;98261.73;1784612;79;25700;-71
2020/12/04 08:30:28;;;;;;;22.17;16.27;;;;;;;5.34;82.04;98268.13;1784640;80;25206;-71
2020/12/04 08:33:03;;;;;;;24.63;16.97;;;;;;;5.31;82.03;98261.38;1784579;80;25241;-70
2020/12/04 08:35:38;;;;;;;24.90;18.47;;;;;;;5.31;81.71;98265.30;1784588;80;25258;-71
2020/12/04 08:38:13;;;;;;;22.40;16.40;;;;;;;5.28;82.10;98257.70;1784626;79;25243;-70
2020/12/04 08:40:46;;;;;;;26.90;18.33;;;;;;;5.25;81.66;98264.45;1784549;80;25142;-70
2020/12/04 08:43:17;;;;;;;23.17;18.00;;;;;;;5.25;81.82;98262.34;1784476;79;25293;-70
2020/12/04 08:45:47;;;;;;;24.93;17.93;;;;;;;5.25;81.95;98255.33;1784728;80;25163;-71
2020/12/04 08:48:22;;;;;;;24.13;17.37;;;;;;;5.30;81.57;98254.98;1783710;80;25290;-70
2020/12/04 08:51:03;;;;;;;26.77;19.07;;;;;;;5.27;81.80;98260.43;1784126;79;25618;-71
2020/12/04 08:53:30;;;;;;;24.97;17.37;;;;;;;5.23;81.90;98251.17;1784676;79;25262;-70
2020/12/04 08:55:58;;;;;;;23.43;16.73;;;;;;;5.21;81.54;98243.47;1784724;79;25083;-70
2020/12/04 08:58:29;;;;;;;24.20;17.60;;;;;;;5.19;81.76;98237.10;1784861;80;25709;-70
2020/12/04 09:00:57;;;;;;;25.37;18.80;;;;;;;5.23;81.85;98255.08;1784802;80;25080;-69
2020/12/04 09:03:26;;;;;;;24.40;17.67;;;;;;;5.24;81.55;98245.02;1784759;79;25170;-70
2020/12/04 09:05:55;;;;;;;21.17;15.83;;;;;;;5.27;81.68;98245.61;1784400;79;25258;-70
2020/12/04 09:08:22;;;;;;;22.83;16.93;;;;;;;5.29;81.24;98242.40;1788900;78;25629;-71
2020/12/04 09:10:49;;;;;;;26.33;17.97;;;;;;;5.28;81.46;98242.06;1765498;80;25673;-71
2020/12/04 09:13:16;;;;;;;35.60;27.30;;;;;;;5.27;81.27;98244.79;1789990;78;25198;-71
2020/12/04 09:15:43;;;;;;;35.83;27.27;;;;;;;5.26;81.46;98242.66;1789999;78;25301;-71
2020/12/04 09:18:11;;;;;;;26.67;18.83;;;;;;;5.26;81.29;98252.24;1789864;80;25755;-70
2020/12/04 09:20:39;;;;;;;26.17;18.43;;;;;;;5.29;81.42;98255.92;1765757;80;25353;-70
2020/12/04 09:23:07;;;;;;;28.03;21.23;;;;;;;5.35;81.47;98267.19;1790065;80;25237;-71
2020/12/04 09:25:34;;;;;;;30.30;22.07;;;;;;;5.41;81.72;98274.51;1789964;79;25316;-71
2020/12/04 09:28:01;;;;;;;29.83;21.57;;;;;;;5.50;81.77;98276.41;1765552;80;25431;-71
2020/12/04 09:30:28;;;;;;;29.97;21.17;;;;;;;5.50;81.71;98269.89;1789711;78;25753;-71
2020/12/04 09:32:55;;;;;;;32.37;24.87;;;;;;;5.55;81.90;98285.19;1789729;78;25616;-71
2020/12/04 09:35:21;;;;;;;29.60;20.73;;;;;;;5.58;81.79;98276.64;1789883;78;25205;-70
2020/12/04 09:37:48;;;;;;;33.17;24.07;;;;;;;5.60;81.61;98281.74;1789868;78;25672;-71
2020/12/04 09:40:18;;;;;;;36.63;26.10;;;;;;;5.64;81.65;98294.06;1789938;79;25282;-71
2020/12/04 09:42:45;;;;;;;54.37;37.70;;;;;;;5.65;81.59;98282.20;1789980;78;25289;-71
2020/12/04 09:45:13;;;;;;;38.90;27.30;;;;;;;5.66;81.61;98283.03;1789920;78;25317;-70
2020/12/04 09:47:40;;;;;;;32.37;23.80;;;;;;;5.65;81.57;98281.36;1789743;80;25324;-71
2020/12/04 09:50:10;;;;;;;32.73;23.93;;;;;;;5.61;81.51;98276.04;1789817;78;25795;-72
2020/12/04 09:52:39;;;;;;;31.27;21.67;;;;;;;5.62;81.71;98282.93;1790106;80;25214;-71
2020/12/04 09:55:09;;;;;;;32.47;22.83;;;;;;;5.62;81.60;98273.31;1789766;78;25254;-71
2020/12/04 09:57:36;;;;;;;28.17;20.63;;;;;;;5.64;81.75;98280.53;1789817;80;25269;-70
2020/12/04 10:00:04;;;;;;;30.43;22.40;;;;;;;5.68;81.46;98279.81;1789950;78;25276;-70
2020/12/04 10:02:31;;;;;;;31.93;21.50;;;;;;;5.70;81.57;98280.06;1789805;79;25218;-71
2020/12/04 10:04:58;;;;;;;29.90;21.57;;;;;;;5.70;81.25;98276.64;1790000;78;25203;-70
2020/12/04 10:07:25;;;;;;;39.50;27.47;;;;;;;5.70;81.43;98270.93;1763852;80;25206;-71
2020/12/04 10:09:52;;;;;;;36.47;25.77;;;;;;;5.74;81.22;98268.91;1784555;79;25704;-70
2020/12/04 10:12:19;;;;;;;28.03;19.90;;;;;;;5.82;81.20;98267.83;1784679;79;25605;-70
2020/12/04 10:14:46;;;;;;;38.43;25.80;;;;;;;5.88;80.93;98267.34;1784555;80;25357;-70
2020/12/04 10:17:13;;;;;;;49.97;33.30;;;;;;;5.94;80.94;98259.48;1784595;80;25278;-69
2020/12/04 10:19:43;;;;;;;54.73;35.20;;;;;;;6.02;80.78;98255.81;1777198;79;25332;-70
2020/12/04 10:22:11;;;;;;;31.70;24.53;;;;;;;6.09;80.73;98256.97;1730319;80;25827;-69
2020/12/04 10:24:38;;;;;;;34.57;23.00;;;;;;;6.20;80.46;98255.27;1729928;80;25699;-70
2020/12/04 10:27:05;;;;;;;31.13;22.00;;;;;;;6.25;80.40;98256.56;1717595;82;25731;-70
2020/12/04 10:29:32;;;;;;;27.53;20.17;;;;;;;6.34;79.68;98256.77;1657024;84;25761;-70
2020/12/04 10:32:00;;;;;;;29.77;21.80;;;;;;;6.38;79.70;98256.37;1686422;83;25248;-72
2020/12/04 10:34:27;;;;;;;35.03;24.80;;;;;;;6.44;79.32;98244.61;1694690;83;25238;-71
2020/12/04 10:36:54;;;;;;;30.57;21.93;;;;;;;6.53;79.45;98228.64;1694867;83;25241;-72
2020/12/04 10:39:21;;;;;;;32.03;23.03;;;;;;;6.61;78.99;98241.90;1648547;83;25321;-71
2020/12/04 10:41:56;;;;;;;34.13;24.93;;;;;;;6.73;78.56;98237.43;1694997;83;25399;-71
2020/12/04 10:44:25;;;;;;;29.00;21.47;;;;;;;6.86;78.79;98234.95;1694915;83;25748;-70
2020/12/04 10:46:52;;;;;;;30.07;22.23;;;;;;;6.99;78.67;98225.60;1671080;84;25261;-70
2020/12/04 10:49:19;;;;;;;25.93;18.70;;;;;;;7.15;77.31;98222.98;1670800;84;25829;-70
2020/12/04 10:51:57;;;;;;;26.10;19.27;;;;;;;7.17;77.53;98226.28;1670792;84;25273;-71
2020/12/04 10:54:24;;;;;;;33.47;23.40;;;;;;;7.18;77.68;98224.02;1694337;83;25272;-71
2020/12/04 10:56:55;;;;;;;30.63;22.37;;;;;;;7.22;77.25;98232.79;1694971;83;25168;-70
2020/12/04 10:59:23;;;;;;;26.67;20.50;;;;;;;7.19;77.47;98224.36;1694938;83;25768;-71
2020/12/04 11:01:59;;;;;;;30.37;20.93;;;;;;;7.20;77.12;98226.02;1694847;83;25859;-72
2020/12/04 11:07:10;;;;;;;32.73;21.33;;;;;;;7.17;76.98;98216.67;1695454;83;25325;-72
2020/12/04 11:09:38;;;;;;;29.33;20.67;;;;;;;7.19;76.83;98217.36;1707458;82;25218;-71
2020/12/04 11:12:05;;;;;;;25.47;17.50;;;;;;;7.20;76.94;98212.45;1707342;82;25311;-71
2020/12/04 11:14:37;;;;;;;30.53;19.77;;;;;;;7.24;76.70;98204.71;1661439;82;25715;-71
2020/12/04 11:17:05;;;;;;;32.43;24.33;;;;;;;7.27;76.64;98211.94;1707341;82;25177;-71
2020/12/04 11:19:32;;;;;;;31.13;22.23;;;;;;;7.30;76.80;98211.19;1707423;82;25201;-72
2020/12/04 11:22:03;;;;;;;27.17;19.77;;;;;;;7.28;76.74;98205.27;1707447;82;25095;-71
2020/12/04 11:24:29;;;;;;;24.20;17.57;;;;;;;7.30;76.58;98212.49;1707237;82;25110;-71
2020/12/04 11:26:58;;;;;;;28.90;21.00;;;;;;;7.28;76.60;98203.96;1683309;84;25083;-71
2020/12/04 11:29:26;;;;;;;34.40;25.23;;;;;;;7.31;76.95;98197.66;1707443;82;25332;-71
2020/12/04 11:31:52;;;;;;;27.83;20.97;;;;;;;7.36;76.45;98194.16;1682831;84;25199;-71
2020/12/04 11:34:19;;;;;;;24.20;18.30;;;;;;;7.43;76.07;98188.23;1707406;82;26363;-71
2020/12/04 11:36:46;;;;;;;23.37;17.00;;;;;;;7.46;75.13;98186.30;1707297;82;25588;-71